sensor_id;sensor_type;location;lat;lon;timestamp;P1;durP1;ratioP1;P2;durP2;ratioP2
22480;SDS011;11407;56.964;-2.212;2023-08-31T00:00:15;3.63;;;1.20;;
22480;SDS011;11407;56.964;-2.212;2023-08-31T00:02:40;4.60;;;1.20;;
22480;SDS011;11407;56.964;-2.212;2023-08-31T00:05:06;2.17;;;1.13;;
22480;SDS011;11407;56.964;-2.212;2023-08-31T00:07:31;1.83;;;1.00;;
22480;SDS011;11407;56.964;-2.212;2023-08-31T00:09:57;1.30;;;1.10;;
22480;SDS011;11407;56.964;-2.212;2023-08-31T00:12:23;1.60;;;1.13;;
22480;SDS011;11407;56.964;-2.212;2023-08-31T00:14:49;1.60;;;1.13;;
22480;SDS011;11407;56.964;-2.212;2023-08-31T00:17:15;3.13;;;1.20;;
22480;SDS011;11407;56.964;-2.212;2023-08-31T00:19:40;1.67;;;1.10;;
22480;SDS011;11407;56.964;-2.212;2023-08-31T00:22:05;1.70;;;1.30;;
22480;SDS011;11407;56.964;-2.212;2023-08-31T00:24:30;4.23;;;1.30;;
22480;SDS011;11407;56.964;-2.212;2023-08-31T00:27:01;2.03;;;1.13;;
22480;SDS011;11407;56.964;-2.212;2023-08-31T00:29:28;1.87;;;1.20;;
22480;SDS011;11407;56.964;-2.212;2023-08-31T00:31:54;1.40;;;1.20;;
22480;SDS011;11407;56.964;-2.212;2023-08-31T00:34:20;1.30;;;1.20;;
22480;SDS011;11407;56.964;-2.212;2023-08-31T00:36:46;3.17;;;1.77;;
22480;SDS011;11407;56.964;-2.212;2023-08-31T00:39:11;1.00;;;1.00;;
22480;SDS011;11407;56.964;-2.212;2023-08-31T00:41:36;2.33;;;1.10;;
22480;SDS011;11407;56.964;-2.212;2023-08-31T00:44:02;3.27;;;1.40;;
22480;SDS011;11407;56.964;-2.212;2023-08-31T00:46:29;1.07;;;0.97;;
22480;SDS011;11407;56.964;-2.212;2023-08-31T00:48:56;3.10;;;1.00;;
22480;SDS011;11407;56.964;-2.212;2023-08-31T00:51:21;1.47;;;1.07;;
22480;SDS011;11407;56.964;-2.212;2023-08-31T00:53:47;2.67;;;1.10;;
22480;SDS011;11407;56.964;-2.212;2023-08-31T00:56:13;1.33;;;1.23;;
22480;SDS011;11407;56.964;-2.212;2023-08-31T00:58:38;1.07;;;0.97;;
22480;SDS011;11407;56.964;-2.212;2023-08-31T01:01:11;2.03;;;1.10;;
22480;SDS011;11407;56.964;-2.212;2023-08-31T01:08:52;2.80;;;1.23;;
22480;SDS011;11407;56.964;-2.212;2023-08-31T01:11:22;2.43;;;1.07;;
22480;SDS011;11407;56.964;-2.212;2023-08-31T01:13:53;2.97;;;1.30;;
22480;SDS011;11407;56.964;-2.212;2023-08-31T01:16:25;2.07;;;1.10;;
22480;SDS011;11407;56.964;-2.212;2023-08-31T01:18:50;2.87;;;1.30;;
22480;SDS011;11407;56.964;-2.212;2023-08-31T01:21:25;1.67;;;1.07;;
22480;SDS011;11407;56.964;-2.212;2023-08-31T01:23:53;1.37;;;1.10;;
22480;SDS011;11407;56.964;-2.212;2023-08-31T01:26:18;1.67;;;1.33;;
22480;SDS011;11407;56.964;-2.212;2023-08-31T01:28:44;1.57;;;1.20;;
22480;SDS011;11407;56.964;-2.212;2023-08-31T01:31:09;1.20;;;1.03;;
22480;SDS011;11407;56.964;-2.212;2023-08-31T01:33:34;1.63;;;1.00;;
22480;SDS011;11407;56.964;-2.212;2023-08-31T01:36:00;2.40;;;1.10;;
22480;SDS011;11407;56.964;-2.212;2023-08-31T01:38:29;1.83;;;1.10;;
22480;SDS011;11407;56.964;-2.212;2023-08-31T01:40:58;1.87;;;1.13;;
22480;SDS011;11407;56.964;-2.212;2023-08-31T01:43:25;3.50;;;1.20;;
22480;SDS011;11407;56.964;-2.212;2023-08-31T01:45:51;2.47;;;1.33;;
22480;SDS011;11407;56.964;-2.212;2023-08-31T01:48:16;1.60;;;1.40;;
22480;SDS011;11407;56.964;-2.212;2023-08-31T01:50:42;2.03;;;1.30;;
22480;SDS011;11407;56.964;-2.212;2023-08-31T01:53:07;1.90;;;1.00;;
22480;SDS011;11407;56.964;-2.212;2023-08-31T01:55:33;1.43;;;1.17;;
22480;SDS011;11407;56.964;-2.212;2023-08-31T01:57:58;1.50;;;1.10;;
22480;SDS011;11407;56.964;-2.212;2023-08-31T02:00:24;2.60;;;1.27;;
22480;SDS011;11407;56.964;-2.212;2023-08-31T02:02:50;1.73;;;1.10;;
22480;SDS011;11407;56.964;-2.212;2023-08-31T02:05:15;3.37;;;1.40;;
22480;SDS011;11407;56.964;-2.212;2023-08-31T02:07:40;1.67;;;1.03;;
22480;SDS011;11407;56.964;-2.212;2023-08-31T02:10:06;2.23;;;1.10;;
22480;SDS011;11407;56.964;-2.212;2023-08-31T02:12:31;1.67;;;1.20;;
22480;SDS011;11407;56.964;-2.212;2023-08-31T02:14:57;2.37;;;1.20;;
22480;SDS011;11407;56.964;-2.212;2023-08-31T02:17:22;1.43;;;1.10;;
22480;SDS011;11407;56.964;-2.212;2023-08-31T02:19:47;2.60;;;1.47;;
22480;SDS011;11407;56.964;-2.212;2023-08-31T02:22:12;1.97;;;1.20;;
22480;SDS011;11407;56.964;-2.212;2023-08-31T02:24:38;1.63;;;1.20;;
22480;SDS011;11407;56.964;-2.212;2023-08-31T02:27:03;2.07;;;1.10;;
22480;SDS011;11407;56.964;-2.212;2023-08-31T02:29:28;1.33;;;1.10;;
22480;SDS011;11407;56.964;-2.212;2023-08-31T02:31:53;1.43;;;1.00;;
22480;SDS011;11407;56.964;-2.212;2023-08-31T02:34:19;1.97;;;1.20;;
22480;SDS011;11407;56.964;-2.212;2023-08-31T02:36:44;3.17;;;1.30;;
22480;SDS011;11407;56.964;-2.212;2023-08-31T02:39:09;1.53;;;1.03;;
22480;SDS011;11407;56.964;-2.212;2023-08-31T02:41:34;1.30;;;1.20;;
22480;SDS011;11407;56.964;-2.212;2023-08-31T02:44:00;2.70;;;1.40;;
22480;SDS011;11407;56.964;-2.212;2023-08-31T02:46:25;2.87;;;1.30;;
22480;SDS011;11407;56.964;-2.212;2023-08-31T02:48:50;2.10;;;1.07;;
22480;SDS011;11407;56.964;-2.212;2023-08-31T02:51:15;1.87;;;1.30;;
22480;SDS011;11407;56.964;-2.212;2023-08-31T02:53:41;3.47;;;1.70;;
22480;SDS011;11407;56.964;-2.212;2023-08-31T02:56:06;1.00;;;0.90;;
22480;SDS011;11407;56.964;-2.212;2023-08-31T02:58:32;1.53;;;1.20;;
22480;SDS011;11407;56.964;-2.212;2023-08-31T03:01:10;2.17;;;1.20;;
22480;SDS011;11407;56.964;-2.212;2023-08-31T03:03:36;1.50;;;1.00;;
22480;SDS011;11407;56.964;-2.212;2023-08-31T03:06:02;2.83;;;1.03;;
22480;SDS011;11407;56.964;-2.212;2023-08-31T03:08:27;1.97;;;1.10;;
22480;SDS011;11407;56.964;-2.212;2023-08-31T03:10:52;2.57;;;1.20;;
22480;SDS011;11407;56.964;-2.212;2023-08-31T03:13:18;2.03;;;1.30;;
22480;SDS011;11407;56.964;-2.212;2023-08-31T03:15:43;1.10;;;0.90;;
22480;SDS011;11407;56.964;-2.212;2023-08-31T03:18:08;3.97;;;1.17;;
22480;SDS011;11407;56.964;-2.212;2023-08-31T03:20:34;1.30;;;1.20;;
22480;SDS011;11407;56.964;-2.212;2023-08-31T03:22:59;1.77;;;1.07;;
22480;SDS011;11407;56.964;-2.212;2023-08-31T03:25:24;4.63;;;1.03;;
22480;SDS011;11407;56.964;-2.212;2023-08-31T03:27:49;1.53;;;1.13;;
22480;SDS011;11407;56.964;-2.212;2023-08-31T03:30:15;1.60;;;1.10;;
22480;SDS011;11407;56.964;-2.212;2023-08-31T03:32:40;1.17;;;1.07;;
22480;SDS011;11407;56.964;-2.212;2023-08-31T03:35:05;1.23;;;1.10;;
22480;SDS011;11407;56.964;-2.212;2023-08-31T03:37:32;1.87;;;1.10;;
22480;SDS011;11407;56.964;-2.212;2023-08-31T03:39:58;1.10;;;1.00;;
22480;SDS011;11407;56.964;-2.212;2023-08-31T03:42:23;1.90;;;1.00;;
22480;SDS011;11407;56.964;-2.212;2023-08-31T03:44:48;3.63;;;1.27;;
22480;SDS011;11407;56.964;-2.212;2023-08-31T03:47:14;1.47;;;1.23;;
22480;SDS011;11407;56.964;-2.212;2023-08-31T03:49:39;3.07;;;1.20;;
22480;SDS011;11407;56.964;-2.212;2023-08-31T03:52:04;1.57;;;1.00;;
22480;SDS011;11407;56.964;-2.212;2023-08-31T03:54:29;1.20;;;1.00;;
22480;SDS011;11407;56.964;-2.212;2023-08-31T03:56:55;1.10;;;1.00;;
22480;SDS011;11407;56.964;-2.212;2023-08-31T03:59:20;2.57;;;1.20;;
22480;SDS011;11407;56.964;-2.212;2023-08-31T04:01:45;1.20;;;1.10;;
22480;SDS011;11407;56.964;-2.212;2023-08-31T04:04:11;1.10;;;1.00;;
22480;SDS011;11407;56.964;-2.212;2023-08-31T04:06:36;3.67;;;1.33;;
22480;SDS011;11407;56.964;-2.212;2023-08-31T04:09:02;1.50;;;1.20;;
22480;SDS011;11407;56.964;-2.212;2023-08-31T04:11:28;1.40;;;1.20;;
22480;SDS011;11407;56.964;-2.212;2023-08-31T04:13:53;1.73;;;1.50;;
22480;SDS011;11407;56.964;-2.212;2023-08-31T04:16:18;1.60;;;1.13;;
22480;SDS011;11407;56.964;-2.212;2023-08-31T04:18:43;2.00;;;1.10;;
22480;SDS011;11407;56.964;-2.212;2023-08-31T04:21:12;2.10;;;1.20;;
22480;SDS011;11407;56.964;-2.212;2023-08-31T04:23:38;1.00;;;0.93;;
22480;SDS011;11407;56.964;-2.212;2023-08-31T04:26:12;2.53;;;1.37;;
22480;SDS011;11407;56.964;-2.212;2023-08-31T04:28:41;2.30;;;1.10;;
22480;SDS011;11407;56.964;-2.212;2023-08-31T04:31:07;2.80;;;1.37;;
22480;SDS011;11407;56.964;-2.212;2023-08-31T04:33:33;2.07;;;1.23;;
22480;SDS011;11407;56.964;-2.212;2023-08-31T04:35:59;1.43;;;1.10;;
22480;SDS011;11407;56.964;-2.212;2023-08-31T04:38:24;1.67;;;0.90;;
22480;SDS011;11407;56.964;-2.212;2023-08-31T04:40:49;1.47;;;1.20;;
22480;SDS011;11407;56.964;-2.212;2023-08-31T04:43:15;1.30;;;1.10;;
22480;SDS011;11407;56.964;-2.212;2023-08-31T04:45:40;1.40;;;1.10;;
22480;SDS011;11407;56.964;-2.212;2023-08-31T04:48:05;1.30;;;1.13;;
22480;SDS011;11407;56.964;-2.212;2023-08-31T04:50:30;1.80;;;1.17;;
22480;SDS011;11407;56.964;-2.212;2023-08-31T04:52:56;2.03;;;1.40;;
22480;SDS011;11407;56.964;-2.212;2023-08-31T04:55:21;1.77;;;1.13;;
22480;SDS011;11407;56.964;-2.212;2023-08-31T04:57:47;4.50;;;1.20;;
22480;SDS011;11407;56.964;-2.212;2023-08-31T05:00:12;1.20;;;1.10;;
22480;SDS011;11407;56.964;-2.212;2023-08-31T05:02:38;1.23;;;1.10;;
22480;SDS011;11407;56.964;-2.212;2023-08-31T05:05:03;2.03;;;1.20;;
22480;SDS011;11407;56.964;-2.212;2023-08-31T05:07:29;2.23;;;1.50;;
22480;SDS011;11407;56.964;-2.212;2023-08-31T05:09:54;1.60;;;1.20;;
22480;SDS011;11407;56.964;-2.212;2023-08-31T05:12:19;1.40;;;1.10;;
22480;SDS011;11407;56.964;-2.212;2023-08-31T05:14:45;1.20;;;1.10;;
22480;SDS011;11407;56.964;-2.212;2023-08-31T05:17:10;2.17;;;1.07;;
22480;SDS011;11407;56.964;-2.212;2023-08-31T05:19:35;2.07;;;1.20;;
22480;SDS011;11407;56.964;-2.212;2023-08-31T05:22:00;1.67;;;1.20;;
22480;SDS011;11407;56.964;-2.212;2023-08-31T05:24:26;1.10;;;0.90;;
22480;SDS011;11407;56.964;-2.212;2023-08-31T05:26:51;2.07;;;1.17;;
22480;SDS011;11407;56.964;-2.212;2023-08-31T05:29:16;1.47;;;1.20;;
22480;SDS011;11407;56.964;-2.212;2023-08-31T05:31:42;1.03;;;0.90;;
22480;SDS011;11407;56.964;-2.212;2023-08-31T05:34:09;1.10;;;1.00;;
22480;SDS011;11407;56.964;-2.212;2023-08-31T05:36:34;2.80;;;1.23;;
22480;SDS011;11407;56.964;-2.212;2023-08-31T05:38:59;1.93;;;1.20;;
22480;SDS011;11407;56.964;-2.212;2023-08-31T05:41:25;1.67;;;1.33;;
22480;SDS011;11407;56.964;-2.212;2023-08-31T05:43:50;1.33;;;1.23;;
22480;SDS011;11407;56.964;-2.212;2023-08-31T05:46:15;1.60;;;1.10;;
22480;SDS011;11407;56.964;-2.212;2023-08-31T05:48:40;1.50;;;1.17;;
22480;SDS011;11407;56.964;-2.212;2023-08-31T05:51:06;1.63;;;1.30;;
22480;SDS011;11407;56.964;-2.212;2023-08-31T05:53:31;1.43;;;1.13;;
22480;SDS011;11407;56.964;-2.212;2023-08-31T05:55:57;1.73;;;1.27;;
22480;SDS011;11407;56.964;-2.212;2023-08-31T05:58:29;1.73;;;1.10;;
22480;SDS011;11407;56.964;-2.212;2023-08-31T06:00:55;3.43;;;1.30;;
22480;SDS011;11407;56.964;-2.212;2023-08-31T06:03:20;2.43;;;1.30;;
22480;SDS011;11407;56.964;-2.212;2023-08-31T06:05:45;1.73;;;1.20;;
22480;SDS011;11407;56.964;-2.212;2023-08-31T06:08:10;2.50;;;1.50;;
22480;SDS011;11407;56.964;-2.212;2023-08-31T06:10:35;2.07;;;1.43;;
22480;SDS011;11407;56.964;-2.212;2023-08-31T06:13:01;1.93;;;1.10;;
22480;SDS011;11407;56.964;-2.212;2023-08-31T06:15:26;1.60;;;1.10;;
22480;SDS011;11407;56.964;-2.212;2023-08-31T06:17:51;2.43;;;1.20;;
22480;SDS011;11407;56.964;-2.212;2023-08-31T06:20:17;2.77;;;1.30;;
22480;SDS011;11407;56.964;-2.212;2023-08-31T06:22:42;1.30;;;1.20;;
22480;SDS011;11407;56.964;-2.212;2023-08-31T06:25:07;1.83;;;1.30;;
22480;SDS011;11407;56.964;-2.212;2023-08-31T06:27:33;1.73;;;1.40;;
22480;SDS011;11407;56.964;-2.212;2023-08-31T06:29:58;1.70;;;1.33;;
22480;SDS011;11407;56.964;-2.212;2023-08-31T06:32:23;1.37;;;1.27;;
22480;SDS011;11407;56.964;-2.212;2023-08-31T06:34:49;2.17;;;1.50;;
22480;SDS011;11407;56.964;-2.212;2023-08-31T06:37:14;1.80;;;1.27;;
22480;SDS011;11407;56.964;-2.212;2023-08-31T06:39:39;2.40;;;1.53;;
22480;SDS011;11407;56.964;-2.212;2023-08-31T06:42:06;2.47;;;1.67;;
22480;SDS011;11407;56.964;-2.212;2023-08-31T06:44:31;2.30;;;2.10;;
22480;SDS011;11407;56.964;-2.212;2023-08-31T06:46:56;2.83;;;1.60;;
22480;SDS011;11407;56.964;-2.212;2023-08-31T06:49:22;1.60;;;1.43;;
22480;SDS011;11407;56.964;-2.212;2023-08-31T06:51:47;1.47;;;1.37;;
22480;SDS011;11407;56.964;-2.212;2023-08-31T06:54:13;2.10;;;1.40;;
22480;SDS011;11407;56.964;-2.212;2023-08-31T06:56:38;3.13;;;2.33;;
22480;SDS011;11407;56.964;-2.212;2023-08-31T06:59:03;3.87;;;1.57;;
22480;SDS011;11407;56.964;-2.212;2023-08-31T07:01:28;1.50;;;1.30;;
22480;SDS011;11407;56.964;-2.212;2023-08-31T07:03:54;1.30;;;1.20;;
22480;SDS011;11407;56.964;-2.212;2023-08-31T07:06:19;1.20;;;1.10;;
22480;SDS011;11407;56.964;-2.212;2023-08-31T07:08:45;2.30;;;1.63;;
22480;SDS011;11407;56.964;-2.212;2023-08-31T07:11:10;1.80;;;1.60;;
22480;SDS011;11407;56.964;-2.212;2023-08-31T07:13:37;2.60;;;1.30;;
22480;SDS011;11407;56.964;-2.212;2023-08-31T07:16:02;2.17;;;1.00;;
22480;SDS011;11407;56.964;-2.212;2023-08-31T07:18:27;0.93;;;0.93;;
22480;SDS011;11407;56.964;-2.212;2023-08-31T07:20:53;0.90;;;0.90;;
22480;SDS011;11407;56.964;-2.212;2023-08-31T07:23:18;1.23;;;0.87;;
22480;SDS011;11407;56.964;-2.212;2023-08-31T07:25:43;1.20;;;1.10;;
22480;SDS011;11407;56.964;-2.212;2023-08-31T07:28:08;1.10;;;1.00;;
22480;SDS011;11407;56.964;-2.212;2023-08-31T07:30:34;1.80;;;1.03;;
22480;SDS011;11407;56.964;-2.212;2023-08-31T07:32:59;1.30;;;1.00;;
22480;SDS011;11407;56.964;-2.212;2023-08-31T07:35:28;3.60;;;1.00;;
22480;SDS011;11407;56.964;-2.212;2023-08-31T07:37:53;1.50;;;1.10;;
22480;SDS011;11407;56.964;-2.212;2023-08-31T07:40:18;1.60;;;1.03;;
22480;SDS011;11407;56.964;-2.212;2023-08-31T07:42:44;0.80;;;0.80;;
22480;SDS011;11407;56.964;-2.212;2023-08-31T07:45:09;1.53;;;0.90;;
22480;SDS011;11407;56.964;-2.212;2023-08-31T07:47:34;1.20;;;0.73;;
22480;SDS011;11407;56.964;-2.212;2023-08-31T07:49:59;1.00;;;0.90;;
22480;SDS011;11407;56.964;-2.212;2023-08-31T07:52:25;1.60;;;0.90;;
22480;SDS011;11407;56.964;-2.212;2023-08-31T07:54:50;1.07;;;0.90;;
22480;SDS011;11407;56.964;-2.212;2023-08-31T07:57:15;0.83;;;0.83;;
22480;SDS011;11407;56.964;-2.212;2023-08-31T07:59:40;1.90;;;1.00;;
22480;SDS011;11407;56.964;-2.212;2023-08-31T08:02:06;1.43;;;0.93;;
22480;SDS011;11407;56.964;-2.212;2023-08-31T08:04:31;1.70;;;0.83;;
22480;SDS011;11407;56.964;-2.212;2023-08-31T08:06:56;1.23;;;0.80;;
22480;SDS011;11407;56.964;-2.212;2023-08-31T08:09:22;1.33;;;0.90;;
22480;SDS011;11407;56.964;-2.212;2023-08-31T08:11:47;1.13;;;0.80;;
22480;SDS011;11407;56.964;-2.212;2023-08-31T08:14:12;0.80;;;0.80;;
22480;SDS011;11407;56.964;-2.212;2023-08-31T08:16:37;1.23;;;0.87;;
22480;SDS011;11407;56.964;-2.212;2023-08-31T08:19:03;1.63;;;0.80;;
22480;SDS011;11407;56.964;-2.212;2023-08-31T08:21:28;0.80;;;0.80;;
22480;SDS011;11407;56.964;-2.212;2023-08-31T08:23:53;0.80;;;0.80;;
22480;SDS011;11407;56.964;-2.212;2023-08-31T08:26:19;1.17;;;0.90;;
22480;SDS011;11407;56.964;-2.212;2023-08-31T08:28:44;1.80;;;0.70;;
22480;SDS011;11407;56.964;-2.212;2023-08-31T08:31:11;0.57;;;0.57;;
22480;SDS011;11407;56.964;-2.212;2023-08-31T08:33:36;1.37;;;0.77;;
22480;SDS011;11407;56.964;-2.212;2023-08-31T08:36:01;0.70;;;0.70;;
22480;SDS011;11407;56.964;-2.212;2023-08-31T08:38:27;1.33;;;0.73;;
22480;SDS011;11407;56.964;-2.212;2023-08-31T08:40:52;0.73;;;0.70;;
22480;SDS011;11407;56.964;-2.212;2023-08-31T08:43:19;0.87;;;0.70;;
22480;SDS011;11407;56.964;-2.212;2023-08-31T08:45:46;0.70;;;0.70;;
22480;SDS011;11407;56.964;-2.212;2023-08-31T08:48:12;0.60;;;0.60;;
22480;SDS011;11407;56.964;-2.212;2023-08-31T08:50:38;0.83;;;0.70;;
22480;SDS011;11407;56.964;-2.212;2023-08-31T08:53:04;1.63;;;0.70;;
22480;SDS011;11407;56.964;-2.212;2023-08-31T08:55:29;1.30;;;0.80;;
22480;SDS011;11407;56.964;-2.212;2023-08-31T08:57:55;1.03;;;0.87;;
22480;SDS011;11407;56.964;-2.212;2023-08-31T09:00:20;0.80;;;0.73;;
22480;SDS011;11407;56.964;-2.212;2023-08-31T09:02:46;1.37;;;0.80;;
22480;SDS011;11407;56.964;-2.212;2023-08-31T09:05:11;0.80;;;0.60;;
22480;SDS011;11407;56.964;-2.212;2023-08-31T09:07:36;0.83;;;0.80;;
22480;SDS011;11407;56.964;-2.212;2023-08-31T09:10:02;1.37;;;0.80;;
22480;SDS011;11407;56.964;-2.212;2023-08-31T09:12:28;1.07;;;0.80;;
22480;SDS011;11407;56.964;-2.212;2023-08-31T09:14:57;0.73;;;0.70;;
22480;SDS011;11407;56.964;-2.212;2023-08-31T09:17:23;1.63;;;0.83;;
22480;SDS011;11407;56.964;-2.212;2023-08-31T09:19:58;0.70;;;0.70;;
22480;SDS011;11407;56.964;-2.212;2023-08-31T09:22:23;1.20;;;0.83;;
22480;SDS011;11407;56.964;-2.212;2023-08-31T09:24:48;0.83;;;0.70;;
22480;SDS011;11407;56.964;-2.212;2023-08-31T09:27:14;1.87;;;0.90;;
22480;SDS011;11407;56.964;-2.212;2023-08-31T09:29:45;0.77;;;0.77;;
22480;SDS011;11407;56.964;-2.212;2023-08-31T09:32:10;1.00;;;0.77;;
22480;SDS011;11407;56.964;-2.212;2023-08-31T09:34:40;0.73;;;0.70;;
22480;SDS011;11407;56.964;-2.212;2023-08-31T09:37:06;0.70;;;0.70;;
22480;SDS011;11407;56.964;-2.212;2023-08-31T09:39:37;0.70;;;0.70;;
22480;SDS011;11407;56.964;-2.212;2023-08-31T09:42:03;1.20;;;0.80;;
22480;SDS011;11407;56.964;-2.212;2023-08-31T09:44:29;1.00;;;0.70;;
22480;SDS011;11407;56.964;-2.212;2023-08-31T09:46:54;1.93;;;0.80;;
22480;SDS011;11407;56.964;-2.212;2023-08-31T09:49:20;1.80;;;0.97;;
22480;SDS011;11407;56.964;-2.212;2023-08-31T09:51:46;2.00;;;0.90;;
22480;SDS011;11407;56.964;-2.212;2023-08-31T09:54:16;1.10;;;0.80;;
22480;SDS011;11407;56.964;-2.212;2023-08-31T09:56:42;1.47;;;0.80;;
22480;SDS011;11407;56.964;-2.212;2023-08-31T09:59:08;0.70;;;0.70;;
22480;SDS011;11407;56.964;-2.212;2023-08-31T10:01:34;1.00;;;0.90;;
22480;SDS011;11407;56.964;-2.212;2023-08-31T10:04:00;1.67;;;0.90;;
22480;SDS011;11407;56.964;-2.212;2023-08-31T10:06:25;1.23;;;0.90;;
22480;SDS011;11407;56.964;-2.212;2023-08-31T10:08:51;0.90;;;0.80;;
22480;SDS011;11407;56.964;-2.212;2023-08-31T10:11:16;1.07;;;0.97;;
22480;SDS011;11407;56.964;-2.212;2023-08-31T10:13:42;2.27;;;1.10;;
22480;SDS011;11407;56.964;-2.212;2023-08-31T10:16:08;0.93;;;0.80;;
22480;SDS011;11407;56.964;-2.212;2023-08-31T10:18:36;0.93;;;0.87;;
22480;SDS011;11407;56.964;-2.212;2023-08-31T10:21:02;0.80;;;0.80;;
22480;SDS011;11407;56.964;-2.212;2023-08-31T10:23:28;1.53;;;1.00;;
22480;SDS011;11407;56.964;-2.212;2023-08-31T10:33:54;1.03;;;0.90;;
22480;SDS011;11407;56.964;-2.212;2023-08-31T10:36:20;1.60;;;0.90;;
22480;SDS011;11407;56.964;-2.212;2023-08-31T10:38:46;1.10;;;0.90;;
22480;SDS011;11407;56.964;-2.212;2023-08-31T10:46:15;1.47;;;0.90;;
22480;SDS011;11407;56.964;-2.212;2023-08-31T10:48:53;2.47;;;1.37;;
22480;SDS011;11407;56.964;-2.212;2023-08-31T10:51:22;1.37;;;1.00;;
22480;SDS011;11407;56.964;-2.212;2023-08-31T10:53:48;1.90;;;1.00;;
22480;SDS011;11407;56.964;-2.212;2023-08-31T10:56:15;0.93;;;0.90;;
22480;SDS011;11407;56.964;-2.212;2023-08-31T10:58:40;1.17;;;1.00;;
22480;SDS011;11407;56.964;-2.212;2023-08-31T11:01:06;0.87;;;0.80;;
22480;SDS011;11407;56.964;-2.212;2023-08-31T11:03:31;1.30;;;0.90;;
22480;SDS011;11407;56.964;-2.212;2023-08-31T11:05:57;1.13;;;0.80;;
22480;SDS011;11407;56.964;-2.212;2023-08-31T11:08:22;0.93;;;0.70;;
22480;SDS011;11407;56.964;-2.212;2023-08-31T11:10:48;1.90;;;0.80;;
22480;SDS011;11407;56.964;-2.212;2023-08-31T11:13:18;0.80;;;0.80;;
22480;SDS011;11407;56.964;-2.212;2023-08-31T11:15:47;1.30;;;0.90;;
22480;SDS011;11407;56.964;-2.212;2023-08-31T11:18:12;1.03;;;0.93;;
22480;SDS011;11407;56.964;-2.212;2023-08-31T11:20:39;0.80;;;0.70;;
22480;SDS011;11407;56.964;-2.212;2023-08-31T11:23:04;0.70;;;0.70;;
22480;SDS011;11407;56.964;-2.212;2023-08-31T11:25:30;0.77;;;0.77;;
22480;SDS011;11407;56.964;-2.212;2023-08-31T11:27:57;1.27;;;0.80;;
22480;SDS011;11407;56.964;-2.212;2023-08-31T11:30:23;0.80;;;0.80;;
22480;SDS011;11407;56.964;-2.212;2023-08-31T11:32:52;1.17;;;0.80;;
22480;SDS011;11407;56.964;-2.212;2023-08-31T11:35:18;1.53;;;1.00;;
22480;SDS011;11407;56.964;-2.212;2023-08-31T11:37:44;1.50;;;1.17;;
22480;SDS011;11407;56.964;-2.212;2023-08-31T11:40:10;1.47;;;0.90;;
22480;SDS011;11407;56.964;-2.212;2023-08-31T11:42:36;1.53;;;1.00;;
22480;SDS011;11407;56.964;-2.212;2023-08-31T11:45:02;1.07;;;0.90;;
22480;SDS011;11407;56.964;-2.212;2023-08-31T11:47:30;1.27;;;0.77;;
22480;SDS011;11407;56.964;-2.212;2023-08-31T11:49:55;1.33;;;0.80;;
22480;SDS011;11407;56.964;-2.212;2023-08-31T11:52:20;1.20;;;0.97;;
22480;SDS011;11407;56.964;-2.212;2023-08-31T11:54:46;2.00;;;1.13;;
22480;SDS011;11407;56.964;-2.212;2023-08-31T11:57:16;1.43;;;1.17;;
22480;SDS011;11407;56.964;-2.212;2023-08-31T11:59:41;2.50;;;1.30;;
22480;SDS011;11407;56.964;-2.212;2023-08-31T12:02:07;1.17;;;0.80;;
22480;SDS011;11407;56.964;-2.212;2023-08-31T12:04:33;1.30;;;0.80;;
22480;SDS011;11407;56.964;-2.212;2023-08-31T12:07:02;1.50;;;0.93;;
22480;SDS011;11407;56.964;-2.212;2023-08-31T12:09:31;1.73;;;1.03;;
22480;SDS011;11407;56.964;-2.212;2023-08-31T12:11:57;1.33;;;0.83;;
22480;SDS011;11407;56.964;-2.212;2023-08-31T12:14:23;1.10;;;1.00;;
22480;SDS011;11407;56.964;-2.212;2023-08-31T12:16:48;1.73;;;1.03;;
22480;SDS011;11407;56.964;-2.212;2023-08-31T12:19:14;2.00;;;1.00;;
22480;SDS011;11407;56.964;-2.212;2023-08-31T12:21:41;2.33;;;0.90;;
22480;SDS011;11407;56.964;-2.212;2023-08-31T12:24:07;1.13;;;0.80;;
22480;SDS011;11407;56.964;-2.212;2023-08-31T12:26:32;1.87;;;1.00;;
22480;SDS011;11407;56.964;-2.212;2023-08-31T12:28:57;1.00;;;0.90;;
22480;SDS011;11407;56.964;-2.212;2023-08-31T12:31:22;1.53;;;0.90;;
22480;SDS011;11407;56.964;-2.212;2023-08-31T12:33:48;1.60;;;1.27;;
22480;SDS011;11407;56.964;-2.212;2023-08-31T12:36:13;0.87;;;0.80;;
22480;SDS011;11407;56.964;-2.212;2023-08-31T12:38:39;2.50;;;1.00;;
22480;SDS011;11407;56.964;-2.212;2023-08-31T12:41:04;1.40;;;1.00;;
22480;SDS011;11407;56.964;-2.212;2023-08-31T12:43:29;1.23;;;0.90;;
22480;SDS011;11407;56.964;-2.212;2023-08-31T12:45:55;1.10;;;0.77;;
22480;SDS011;11407;56.964;-2.212;2023-08-31T12:48:20;1.27;;;1.00;;
22480;SDS011;11407;56.964;-2.212;2023-08-31T12:50:45;1.70;;;1.00;;
22480;SDS011;11407;56.964;-2.212;2023-08-31T12:53:13;0.83;;;0.80;;
22480;SDS011;11407;56.964;-2.212;2023-08-31T12:55:38;0.80;;;0.80;;
22480;SDS011;11407;56.964;-2.212;2023-08-31T12:58:03;1.37;;;0.80;;
22480;SDS011;11407;56.964;-2.212;2023-08-31T13:00:29;1.33;;;0.80;;
22480;SDS011;11407;56.964;-2.212;2023-08-31T13:02:54;0.70;;;0.70;;
22480;SDS011;11407;56.964;-2.212;2023-08-31T13:05:20;1.33;;;0.80;;
22480;SDS011;11407;56.964;-2.212;2023-08-31T13:07:45;0.87;;;0.70;;
22480;SDS011;11407;56.964;-2.212;2023-08-31T13:10:11;1.60;;;0.90;;
22480;SDS011;11407;56.964;-2.212;2023-08-31T13:12:36;0.90;;;0.80;;
22480;SDS011;11407;56.964;-2.212;2023-08-31T13:15:02;0.97;;;0.87;;
22480;SDS011;11407;56.964;-2.212;2023-08-31T13:17:27;1.27;;;0.83;;
22480;SDS011;11407;56.964;-2.212;2023-08-31T13:19:53;0.80;;;0.80;;
22480;SDS011;11407;56.964;-2.212;2023-08-31T13:22:18;1.20;;;0.90;;
22480;SDS011;11407;56.964;-2.212;2023-08-31T13:24:44;1.70;;;0.83;;
22480;SDS011;11407;56.964;-2.212;2023-08-31T13:27:09;1.87;;;0.80;;
22480;SDS011;11407;56.964;-2.212;2023-08-31T13:29:34;0.70;;;0.70;;
22480;SDS011;11407;56.964;-2.212;2023-08-31T13:31:59;0.73;;;0.70;;
22480;SDS011;11407;56.964;-2.212;2023-08-31T13:34:25;0.77;;;0.73;;
22480;SDS011;11407;56.964;-2.212;2023-08-31T13:36:50;1.07;;;0.87;;
22480;SDS011;11407;56.964;-2.212;2023-08-31T13:39:15;0.70;;;0.70;;
22480;SDS011;11407;56.964;-2.212;2023-08-31T13:41:41;0.80;;;0.80;;
22480;SDS011;11407;56.964;-2.212;2023-08-31T13:44:06;0.80;;;0.80;;
22480;SDS011;11407;56.964;-2.212;2023-08-31T13:46:31;1.17;;;0.83;;
22480;SDS011;11407;56.964;-2.212;2023-08-31T13:48:57;1.67;;;0.80;;
22480;SDS011;11407;56.964;-2.212;2023-08-31T13:51:22;0.90;;;0.80;;
22480;SDS011;11407;56.964;-2.212;2023-08-31T13:53:47;1.20;;;0.80;;
22480;SDS011;11407;56.964;-2.212;2023-08-31T13:56:13;0.80;;;0.80;;
22480;SDS011;11407;56.964;-2.212;2023-08-31T13:58:38;0.80;;;0.70;;
22480;SDS011;11407;56.964;-2.212;2023-08-31T14:01:03;1.17;;;0.80;;
22480;SDS011;11407;56.964;-2.212;2023-08-31T14:03:29;1.20;;;0.80;;
22480;SDS011;11407;56.964;-2.212;2023-08-31T14:05:54;1.43;;;0.80;;
22480;SDS011;11407;56.964;-2.212;2023-08-31T14:08:19;1.37;;;0.80;;
22480;SDS011;11407;56.964;-2.212;2023-08-31T14:10:44;0.67;;;0.63;;
22480;SDS011;11407;56.964;-2.212;2023-08-31T14:13:09;0.70;;;0.70;;
22480;SDS011;11407;56.964;-2.212;2023-08-31T14:15:35;2.30;;;0.80;;
22480;SDS011;11407;56.964;-2.212;2023-08-31T14:18:01;0.70;;;0.70;;
22480;SDS011;11407;56.964;-2.212;2023-08-31T14:20:26;1.67;;;0.80;;
22480;SDS011;11407;56.964;-2.212;2023-08-31T14:22:52;0.70;;;0.70;;
22480;SDS011;11407;56.964;-2.212;2023-08-31T14:25:17;0.70;;;0.70;;
22480;SDS011;11407;56.964;-2.212;2023-08-31T14:27:42;1.03;;;0.70;;
22480;SDS011;11407;56.964;-2.212;2023-08-31T14:30:08;1.07;;;0.70;;
22480;SDS011;11407;56.964;-2.212;2023-08-31T14:32:33;0.50;;;0.50;;
22480;SDS011;11407;56.964;-2.212;2023-08-31T14:34:58;1.23;;;0.80;;
22480;SDS011;11407;56.964;-2.212;2023-08-31T14:37:23;0.90;;;0.80;;
22480;SDS011;11407;56.964;-2.212;2023-08-31T14:39:49;0.63;;;0.63;;
22480;SDS011;11407;56.964;-2.212;2023-08-31T14:42:15;0.80;;;0.70;;